OIMM

Mashhad International Airport

Airport
ICAO code
OIMM
IATA Code
MHD
Summary
ICAO Region
MID
ICAO Territory
Location

Mashhad, Razavi Khorasan Province

Serving
Mashhad
Elevation
3263 ft
Coordinates
36° 14' 7" N , 59° 38' 27" E
KCC
Metar
Observation
OIMM 301400Z 16010KT CAVOK 10/04 Q1026 A3032
Station
Mashhad
Date/Time
2022-11-30 14:00:00
Wind direction
160°
Wind speed
10 kts
Lowest cloud amount
clouds and visibility OK
Temperature
10°C
Dew point
4°C
Humidity
66%
QNH
1026 hPa
Weather condition
n/a

Mashhad International Airport or Shahid Hashemi Nejad Airport is an airport in Mashhad, Razavi Khorasan, Iran.

Climatology

Cold Semi-arid climate (Köppen climate classification BSk). - Hot, sometimes extremely hot summers and cold, sometimes very cold winters. Some snowfall during the winter. Areas featuring cold semi-arid climates are sometimes subject to major temperature swings during a 24 hour period.

Runways

Designator Length Width Surface Rops
13L/31R 3811 45 ASP Yes/Yes
13R/31L 3925 45 ASP Yes/Yes

Airport map

Aerial View

SKYbrary Partners:

Safety knowledge contributed by: